Thursday, November 23, 2017, 7:20 PM EST
Back to Local

KWRI, Mcguire Air Force Base

Location: Trenton, NJ, United States Lat: 40.017
Local Time: 7:20 PM EST ( 0:20 GMT) Lon: -74.6
Time Zone: US/Eastern Elev: 134 ft

Show me the last for .
Show Coded

Time T Td Feel RH Dir Speed Gust Alt SLP Vis Weather Sky Remarks
2017-11-23 18:56 30 22 - 70 - Calm - 30.02 30.02 10 CLR 6-hr Min Temp (7pm): 29.3°F
6-hr Max Temp (7pm): 41.2°F
2017-11-23 17:56 31 22 - 68 - Calm - 30.02 30.02 10 CLR None
2017-11-23 16:56 35 22 32 57 270° 3 - 30.01 30.01 10 CLR None
2017-11-23 15:56 39 19 34 43 280° 7 - 30.02 30.02 10 CLR None
2017-11-23 14:56 41 21 39 44 320° 3 - 30.02 30.02 10 CLR None
2017-11-23 13:56 41 20 37 44 320° 6 - 30.03 30.03 10 CLR None
2017-11-23 12:56 40 20 34 45 290° 8 - 30.05 30.05 10 CLR 6-hr Min Temp (1pm): 27.1°F
6-hr Max Temp (1pm): 39.6°F
2017-11-23 11:56 38 21 32 50 320° 8 - 30.07 30.07 10 CLR None
2017-11-23 10:56 38 21 32 50 320° 7 - 30.09 30.09 10 CLR None
2017-11-23 09:56 35 20 27 53 330° 10 - 30.11 30.11 10 CLR None
2017-11-23 08:56 33 20 27 57 310° 7 - 30.13 30.13 10 CLR None
2017-11-23 07:56 30 19 23 62 320° 7 - 30.13 30.13 10 CLR None
2017-11-23 06:56 27 19 20 71 300° 6 - 30.11 30.11 10 CLR 24-hr Precip Total (7am): 0.16"
6-hr Min Temp (7am): 26.6°F
6-hr Max Temp (7am): 32.2°F
2017-11-23 05:56 27 19 23 71 300° 3 - 30.10 30.10 10 CLR None
2017-11-23 04:56 28 20 23 70 270° 5 - 30.10 30.10 10 CLR None
2017-11-23 03:56 29 20 23 68 330° 6 - 30.08 30.08 10 CLR None
2017-11-23 02:56 31 20 25 62 330° 7 - 30.08 30.08 10 CLR None
2017-11-23 01:56 32 21 26 64 330° 6 - 30.08 30.08 10 CLR None
2017-11-23 00:56 32 22 26 64 350° 6 - 30.08 30.08 10 CLR 6-hr Min Temp (1am): 32.0°F
6-hr Max Temp (1am): 41.2°F
2017-11-22 23:56 34 22 27 62 340° 8 - 30.10 30.10 10 CLR 24-hr Min Temp (12am): 33.3°F
24-hr Max Temp (12am): 54.7°F
2017-11-22 22:56 35 23 29 62 320° 7 - 30.09 30.09 10 CLR None
2017-11-22 21:56 36 24 29 61 310° 9 - 30.08 30.08 10 SCT039 None
2017-11-22 20:56 37 24 27 59 330° 9 17 30.07 30.07 10 CLR None
2017-11-22 19:56 40 26 30 56 340° 15 22 30.06 30.06 10 OVC041 None

Support USWX by starting your Amazon purchase here.